Weather at Dane County Regional Truax Field

Public forecast

Using degrees Fahrenheit for public forecast. Weather courtesy of forecast.io.

Current aviation weather report (METAR) for Dane County Regional Truax Field

Retrieved 2022/06/30 03:53 UTC (1 hour ago):

KMSN 300353Z 18010KT 10SM CLR 26/16 A3005 RMK AO2 SLP170 LAST T02560161

Aviation forecast (TAF) for Dane County Regional Truax Field

Retrieved 2022-06-30 00:22 UTC (5 hours ago):

TAF KMSN 292320Z 3000/3024 18009KT P6SM FEW250 FM300800 20009KT P6SM FEW240 WS020/23040KT FM301200 20012G24KT P6SM FEW250